sensor_id;sensor_type;location;lat;lon;timestamp;pressure;altitude;pressure_sealevel;temperature;humidity
69772;BME280;57046;45.988;18.664;2023-02-10T00:00:50;102881.75;;;-1.98;70.04
69772;BME280;57046;45.988;18.664;2023-02-10T00:03:15;102864.81;;;-2.12;70.49
69772;BME280;57046;45.988;18.664;2023-02-10T00:05:40;102876.00;;;-2.25;71.39
69772;BME280;57046;45.988;18.664;2023-02-10T00:08:06;102887.72;;;-2.27;71.80
69772;BME280;57046;45.988;18.664;2023-02-10T00:10:31;102884.06;;;-2.49;73.81
69772;BME280;57046;45.988;18.664;2023-02-10T00:12:56;102880.72;;;-2.74;74.51
69772;BME280;57046;45.988;18.664;2023-02-10T00:15:22;102881.34;;;-2.72;74.13
69772;BME280;57046;45.988;18.664;2023-02-10T00:17:47;102871.91;;;-2.66;73.30
69772;BME280;57046;45.988;18.664;2023-02-10T00:20:12;102884.41;;;-2.52;72.43
69772;BME280;57046;45.988;18.664;2023-02-10T00:22:38;102885.09;;;-2.58;73.40
69772;BME280;57046;45.988;18.664;2023-02-10T00:25:03;102880.47;;;-2.56;73.68
69772;BME280;57046;45.988;18.664;2023-02-10T00:27:29;102870.91;;;-2.65;73.74
69772;BME280;57046;45.988;18.664;2023-02-10T00:29:54;102870.59;;;-2.62;73.83
69772;BME280;57046;45.988;18.664;2023-02-10T00:32:19;102870.72;;;-2.55;73.71
69772;BME280;57046;45.988;18.664;2023-02-10T00:34:45;102882.75;;;-2.53;73.90
69772;BME280;57046;45.988;18.664;2023-02-10T00:37:11;102871.69;;;-2.57;73.51
69772;BME280;57046;45.988;18.664;2023-02-10T00:39:36;102877.81;;;-2.56;74.13
69772;BME280;57046;45.988;18.664;2023-02-10T00:42:02;102876.16;;;-2.57;74.06
69772;BME280;57046;45.988;18.664;2023-02-10T00:44:27;102873.16;;;-2.54;73.37
69772;BME280;57046;45.988;18.664;2023-02-10T00:46:52;102883.28;;;-2.58;73.31
69772;BME280;57046;45.988;18.664;2023-02-10T00:49:18;102877.63;;;-2.54;73.54
69772;BME280;57046;45.988;18.664;2023-02-10T00:51:43;102819.97;;;-2.90;73.93
69772;BME280;57046;45.988;18.664;2023-02-10T00:54:11;102852.25;;;-2.72;74.60
69772;BME280;57046;45.988;18.664;2023-02-10T00:56:36;102870.38;;;-2.61;74.49
69772;BME280;57046;45.988;18.664;2023-02-10T00:59:02;102865.81;;;-2.67;76.23
69772;BME280;57046;45.988;18.664;2023-02-10T01:01:27;102867.38;;;-2.49;77.02
69772;BME280;57046;45.988;18.664;2023-02-10T01:03:52;102878.09;;;-2.51;76.62
69772;BME280;57046;45.988;18.664;2023-02-10T01:06:18;102871.19;;;-2.52;76.70
69772;BME280;57046;45.988;18.664;2023-02-10T01:08:43;102874.34;;;-2.57;76.55
69772;BME280;57046;45.988;18.664;2023-02-10T01:11:10;102881.47;;;-2.65;77.19
69772;BME280;57046;45.988;18.664;2023-02-10T01:13:37;102875.88;;;-2.62;76.65
69772;BME280;57046;45.988;18.664;2023-02-10T01:16:08;102873.03;;;-2.61;76.35
69772;BME280;57046;45.988;18.664;2023-02-10T01:18:33;102872.88;;;-2.59;76.22
69772;BME280;57046;45.988;18.664;2023-02-10T01:20:59;102837.75;;;-2.76;76.00
69772;BME280;57046;45.988;18.664;2023-02-10T01:23:24;102848.63;;;-2.71;76.57
69772;BME280;57046;45.988;18.664;2023-02-10T01:25:49;102862.47;;;-2.69;76.26
69772;BME280;57046;45.988;18.664;2023-02-10T01:28:15;102859.38;;;-2.72;75.90
69772;BME280;57046;45.988;18.664;2023-02-10T01:30:40;102861.97;;;-2.64;75.85
69772;BME280;57046;45.988;18.664;2023-02-10T01:33:06;102854.22;;;-2.66;75.65
69772;BME280;57046;45.988;18.664;2023-02-10T01:35:31;102860.66;;;-2.68;75.62
69772;BME280;57046;45.988;18.664;2023-02-10T01:37:57;102856.91;;;-2.74;76.01
69772;BME280;57046;45.988;18.664;2023-02-10T01:40:24;102859.53;;;-2.74;75.33
69772;BME280;57046;45.988;18.664;2023-02-10T01:42:49;102857.41;;;-2.78;75.36
69772;BME280;57046;45.988;18.664;2023-02-10T01:45:33;102871.31;;;-2.76;75.56
69772;BME280;57046;45.988;18.664;2023-02-10T01:47:59;102828.28;;;-3.09;76.08
69772;BME280;57046;45.988;18.664;2023-02-10T01:50:30;102860.63;;;-2.99;76.63
69772;BME280;57046;45.988;18.664;2023-02-10T01:52:58;102861.38;;;-3.21;77.44
69772;BME280;57046;45.988;18.664;2023-02-10T01:55:28;102823.47;;;-3.52;77.40
69772;BME280;57046;45.988;18.664;2023-02-10T01:57:55;102863.38;;;-3.23;77.03
69772;BME280;57046;45.988;18.664;2023-02-10T02:00:22;102872.09;;;-3.06;75.96
69772;BME280;57046;45.988;18.664;2023-02-10T02:02:48;102851.56;;;-3.04;75.40
69772;BME280;57046;45.988;18.664;2023-02-10T02:05:36;102862.13;;;-2.96;75.67
69772;BME280;57046;45.988;18.664;2023-02-10T02:08:08;102793.84;;;-3.40;75.58
69772;BME280;57046;45.988;18.664;2023-02-10T02:14:10;102868.69;;;-2.92;75.31
69772;BME280;57046;45.988;18.664;2023-02-10T02:16:44;102877.81;;;-2.95;75.05
69772;BME280;57046;45.988;18.664;2023-02-10T02:23:24;102863.94;;;-2.97;75.31
69772;BME280;57046;45.988;18.664;2023-02-10T02:25:26;102793.84;;;-3.40;75.35
69772;BME280;57046;45.988;18.664;2023-02-10T02:33:28;102803.94;;;-3.43;75.37
69772;BME280;57046;45.988;18.664;2023-02-10T02:36:01;102841.88;;;-3.20;75.20
69772;BME280;57046;45.988;18.664;2023-02-10T02:38:29;102862.34;;;-3.14;75.45
69772;BME280;57046;45.988;18.664;2023-02-10T02:40:54;102841.91;;;-3.36;75.61
69772;BME280;57046;45.988;18.664;2023-02-10T02:43:20;102848.03;;;-3.28;75.29
69772;BME280;57046;45.988;18.664;2023-02-10T02:48:28;102865.63;;;-3.12;74.27
69772;BME280;57046;45.988;18.664;2023-02-10T02:53:50;102808.94;;;-3.48;74.11
69772;BME280;57046;45.988;18.664;2023-02-10T02:59:13;102863.03;;;-3.20;74.26
69772;BME280;57046;45.988;18.664;2023-02-10T03:02:01;102866.16;;;-3.17;74.09
69772;BME280;57046;45.988;18.664;2023-02-10T03:04:30;102879.06;;;-3.22;74.37
69772;BME280;57046;45.988;18.664;2023-02-10T03:06:56;102869.94;;;-3.19;73.91
69772;BME280;57046;45.988;18.664;2023-02-10T03:09:22;102856.28;;;-3.39;74.18
69772;BME280;57046;45.988;18.664;2023-02-10T03:11:48;102844.09;;;-3.56;74.71
69772;BME280;57046;45.988;18.664;2023-02-10T03:14:13;102871.84;;;-3.52;75.41
69772;BME280;57046;45.988;18.664;2023-02-10T03:16:39;102869.06;;;-3.50;74.66
69772;BME280;57046;45.988;18.664;2023-02-10T03:19:04;102867.88;;;-3.48;74.27
69772;BME280;57046;45.988;18.664;2023-02-10T03:21:29;102868.88;;;-3.41;73.99
69772;BME280;57046;45.988;18.664;2023-02-10T03:23:55;102869.50;;;-3.39;73.59
69772;BME280;57046;45.988;18.664;2023-02-10T03:26:20;102878.41;;;-3.40;74.33
69772;BME280;57046;45.988;18.664;2023-02-10T03:28:45;102862.44;;;-3.54;74.22
69772;BME280;57046;45.988;18.664;2023-02-10T03:31:11;102871.50;;;-3.41;74.16
69772;BME280;57046;45.988;18.664;2023-02-10T03:33:36;102880.25;;;-3.48;73.95
69772;BME280;57046;45.988;18.664;2023-02-10T03:36:02;102875.50;;;-3.61;73.93
69772;BME280;57046;45.988;18.664;2023-02-10T03:38:28;102860.63;;;-3.62;73.85
69772;BME280;57046;45.988;18.664;2023-02-10T03:40:53;102862.94;;;-3.51;73.98
69772;BME280;57046;45.988;18.664;2023-02-10T03:43:19;102860.94;;;-3.49;74.27
69772;BME280;57046;45.988;18.664;2023-02-10T03:45:45;102860.28;;;-3.51;73.70
69772;BME280;57046;45.988;18.664;2023-02-10T03:48:11;102872.63;;;-3.43;73.24
69772;BME280;57046;45.988;18.664;2023-02-10T03:50:37;102865.09;;;-3.54;73.58
69772;BME280;57046;45.988;18.664;2023-02-10T03:53:03;102862.59;;;-3.56;74.13
69772;BME280;57046;45.988;18.664;2023-02-10T03:55:28;102864.75;;;-3.60;74.40
69772;BME280;57046;45.988;18.664;2023-02-10T03:57:54;102842.31;;;-3.72;74.38
69772;BME280;57046;45.988;18.664;2023-02-10T04:00:20;102867.22;;;-3.58;74.09
69772;BME280;57046;45.988;18.664;2023-02-10T04:02:45;102860.81;;;-3.96;74.76
69772;BME280;57046;45.988;18.664;2023-02-10T04:05:11;102874.97;;;-3.81;74.94
69772;BME280;57046;45.988;18.664;2023-02-10T04:07:37;102877.31;;;-3.78;74.87
69772;BME280;57046;45.988;18.664;2023-02-10T04:10:03;102863.47;;;-3.88;74.18
69772;BME280;57046;45.988;18.664;2023-02-10T04:12:28;102876.66;;;-3.96;73.94
69772;BME280;57046;45.988;18.664;2023-02-10T04:14:54;102874.47;;;-4.17;75.65
69772;BME280;57046;45.988;18.664;2023-02-10T04:17:19;102876.47;;;-4.11;75.89
69772;BME280;57046;45.988;18.664;2023-02-10T04:19:45;102882.75;;;-4.03;75.26
69772;BME280;57046;45.988;18.664;2023-02-10T04:22:10;102874.34;;;-3.99;75.21
69772;BME280;57046;45.988;18.664;2023-02-10T04:24:36;102842.31;;;-4.20;75.42
69772;BME280;57046;45.988;18.664;2023-02-10T04:27:01;102864.59;;;-3.90;75.35
69772;BME280;57046;45.988;18.664;2023-02-10T04:29:26;102825.66;;;-4.21;74.96
69772;BME280;57046;45.988;18.664;2023-02-10T04:31:52;102867.09;;;-3.89;74.44
69772;BME280;57046;45.988;18.664;2023-02-10T04:34:17;102877.13;;;-3.84;74.62
69772;BME280;57046;45.988;18.664;2023-02-10T04:36:43;102872.84;;;-3.85;74.32
69772;BME280;57046;45.988;18.664;2023-02-10T04:39:08;102869.72;;;-3.89;74.35
69772;BME280;57046;45.988;18.664;2023-02-10T04:41:33;102865.91;;;-3.94;74.35
69772;BME280;57046;45.988;18.664;2023-02-10T04:43:59;102867.91;;;-3.96;75.36
69772;BME280;57046;45.988;18.664;2023-02-10T04:46:24;102874.03;;;-3.88;77.09
69772;BME280;57046;45.988;18.664;2023-02-10T04:48:50;102875.50;;;-3.85;77.33
69772;BME280;57046;45.988;18.664;2023-02-10T04:51:15;102824.50;;;-4.18;77.12
69772;BME280;57046;45.988;18.664;2023-02-10T04:53:41;102879.78;;;-3.92;76.48
69772;BME280;57046;45.988;18.664;2023-02-10T04:56:06;102883.59;;;-3.95;75.69
69772;BME280;57046;45.988;18.664;2023-02-10T04:58:32;102867.22;;;-4.06;74.46
69772;BME280;57046;45.988;18.664;2023-02-10T05:00:58;102876.13;;;-4.07;74.68
69772;BME280;57046;45.988;18.664;2023-02-10T05:03:24;102883.22;;;-4.08;74.74
69772;BME280;57046;45.988;18.664;2023-02-10T05:05:49;102892.00;;;-3.99;74.63
69772;BME280;57046;45.988;18.664;2023-02-10T05:08:15;102886.34;;;-4.04;75.92
69772;BME280;57046;45.988;18.664;2023-02-10T05:10:40;102885.06;;;-4.00;75.41
69772;BME280;57046;45.988;18.664;2023-02-10T05:13:06;102880.59;;;-4.00;75.15
69772;BME280;57046;45.988;18.664;2023-02-10T05:15:32;102880.75;;;-4.18;75.17
69772;BME280;57046;45.988;18.664;2023-02-10T05:17:57;102877.28;;;-4.18;74.35
69772;BME280;57046;45.988;18.664;2023-02-10T05:20:22;102891.81;;;-4.22;74.59
69772;BME280;57046;45.988;18.664;2023-02-10T05:22:48;102890.13;;;-4.31;74.97
69772;BME280;57046;45.988;18.664;2023-02-10T05:25:13;102887.97;;;-4.36;75.91
69772;BME280;57046;45.988;18.664;2023-02-10T05:27:39;102872.13;;;-4.44;75.23
69772;BME280;57046;45.988;18.664;2023-02-10T05:30:05;102899.34;;;-4.35;75.77
69772;BME280;57046;45.988;18.664;2023-02-10T05:32:31;102896.50;;;-4.42;75.66
69772;BME280;57046;45.988;18.664;2023-02-10T05:34:56;102890.91;;;-4.47;76.40
69772;BME280;57046;45.988;18.664;2023-02-10T05:37:21;102895.06;;;-4.36;80.31
69772;BME280;57046;45.988;18.664;2023-02-10T05:39:47;102865.09;;;-3.87;90.73
69772;BME280;57046;45.988;18.664;2023-02-10T05:42:12;102891.81;;;-3.98;84.58
69772;BME280;57046;45.988;18.664;2023-02-10T05:44:37;102904.34;;;-4.16;81.30
69772;BME280;57046;45.988;18.664;2023-02-10T05:47:03;102901.16;;;-4.36;78.33
69772;BME280;57046;45.988;18.664;2023-02-10T05:49:28;102913.34;;;-4.35;77.72
69772;BME280;57046;45.988;18.664;2023-02-10T05:51:53;102886.91;;;-4.59;77.01
69772;BME280;57046;45.988;18.664;2023-02-10T05:54:19;102896.66;;;-4.51;77.73
69772;BME280;57046;45.988;18.664;2023-02-10T05:56:44;102906.22;;;-4.50;77.53
69772;BME280;57046;45.988;18.664;2023-02-10T05:59:11;102929.50;;;-4.46;77.79
69772;BME280;57046;45.988;18.664;2023-02-10T06:01:37;102922.88;;;-4.50;77.51
69772;BME280;57046;45.988;18.664;2023-02-10T06:04:02;102929.47;;;-4.54;76.04
69772;BME280;57046;45.988;18.664;2023-02-10T06:06:27;102914.38;;;-4.78;75.49
69772;BME280;57046;45.988;18.664;2023-02-10T06:08:53;102926.25;;;-4.74;75.67
69772;BME280;57046;45.988;18.664;2023-02-10T06:11:18;102909.66;;;-4.66;75.33
69772;BME280;57046;45.988;18.664;2023-02-10T06:13:44;102930.75;;;-4.58;75.21
69772;BME280;57046;45.988;18.664;2023-02-10T06:16:09;102905.34;;;-4.67;75.71
69772;BME280;57046;45.988;18.664;2023-02-10T06:18:34;102923.50;;;-4.64;75.89
69772;BME280;57046;45.988;18.664;2023-02-10T06:21:00;102924.78;;;-4.68;75.69
69772;BME280;57046;45.988;18.664;2023-02-10T06:23:25;102929.72;;;-4.73;76.36
69772;BME280;57046;45.988;18.664;2023-02-10T06:25:51;102941.91;;;-4.72;75.45
69772;BME280;57046;45.988;18.664;2023-02-10T06:28:17;102943.56;;;-4.71;75.15
69772;BME280;57046;45.988;18.664;2023-02-10T06:30:42;102934.34;;;-4.67;75.56
69772;BME280;57046;45.988;18.664;2023-02-10T06:33:07;102930.38;;;-4.71;76.64
69772;BME280;57046;45.988;18.664;2023-02-10T06:35:33;102908.72;;;-4.91;75.95
69772;BME280;57046;45.988;18.664;2023-02-10T06:37:58;102942.06;;;-4.74;76.37
69772;BME280;57046;45.988;18.664;2023-02-10T06:40:24;102951.00;;;-4.67;76.18
69772;BME280;57046;45.988;18.664;2023-02-10T06:42:50;102956.59;;;-4.70;76.07
69772;BME280;57046;45.988;18.664;2023-02-10T06:45:15;102960.34;;;-4.72;76.10
69772;BME280;57046;45.988;18.664;2023-02-10T06:47:41;102981.47;;;-4.98;77.08
69772;BME280;57046;45.988;18.664;2023-02-10T06:50:06;102978.31;;;-5.01;78.42
69772;BME280;57046;45.988;18.664;2023-02-10T06:52:32;102954.44;;;-5.00;78.20
69772;BME280;57046;45.988;18.664;2023-02-10T06:54:57;102981.31;;;-4.71;77.42
69772;BME280;57046;45.988;18.664;2023-02-10T06:57:22;102979.97;;;-4.75;78.10
69772;BME280;57046;45.988;18.664;2023-02-10T06:59:48;102980.66;;;-4.65;77.82
69772;BME280;57046;45.988;18.664;2023-02-10T07:02:13;102990.78;;;-4.52;78.61
69772;BME280;57046;45.988;18.664;2023-02-10T07:04:39;102981.69;;;-4.57;79.01
69772;BME280;57046;45.988;18.664;2023-02-10T07:07:05;102992.81;;;-4.46;80.39
69772;BME280;57046;45.988;18.664;2023-02-10T07:09:30;102983.25;;;-4.39;79.07
69772;BME280;57046;45.988;18.664;2023-02-10T07:11:57;102979.81;;;-4.31;79.15
69772;BME280;57046;45.988;18.664;2023-02-10T07:14:23;102983.34;;;-4.23;79.77
69772;BME280;57046;45.988;18.664;2023-02-10T07:16:48;102974.25;;;-4.20;80.61
69772;BME280;57046;45.988;18.664;2023-02-10T07:19:13;102963.19;;;-4.24;81.51
69772;BME280;57046;45.988;18.664;2023-02-10T07:21:39;102972.47;;;-4.12;82.54
69772;BME280;57046;45.988;18.664;2023-02-10T07:24:05;102992.44;;;-4.01;81.53
69772;BME280;57046;45.988;18.664;2023-02-10T07:26:30;102978.13;;;-3.98;81.85
69772;BME280;57046;45.988;18.664;2023-02-10T07:28:56;102983.59;;;-3.92;81.84
69772;BME280;57046;45.988;18.664;2023-02-10T07:31:21;102988.84;;;-3.84;81.50
69772;BME280;57046;45.988;18.664;2023-02-10T07:33:46;102953.03;;;-4.02;81.66
69772;BME280;57046;45.988;18.664;2023-02-10T07:36:12;102986.75;;;-3.72;83.56
69772;BME280;57046;45.988;18.664;2023-02-10T07:38:37;103012.34;;;-3.65;84.85
69772;BME280;57046;45.988;18.664;2023-02-10T07:41:04;103000.47;;;-3.52;84.61
69772;BME280;57046;45.988;18.664;2023-02-10T07:43:30;103004.44;;;-3.48;83.87
69772;BME280;57046;45.988;18.664;2023-02-10T07:45:55;103006.75;;;-3.37;83.27
69772;BME280;57046;45.988;18.664;2023-02-10T07:48:20;103008.75;;;-3.31;82.55
69772;BME280;57046;45.988;18.664;2023-02-10T07:50:46;102992.41;;;-3.27;82.02
69772;BME280;57046;45.988;18.664;2023-02-10T07:53:12;102989.06;;;-3.29;81.45
69772;BME280;57046;45.988;18.664;2023-02-10T07:55:37;102998.66;;;-3.12;81.49
69772;BME280;57046;45.988;18.664;2023-02-10T07:58:04;103007.56;;;-2.96;81.02
69772;BME280;57046;45.988;18.664;2023-02-10T08:00:29;102995.66;;;-3.00;80.76
69772;BME280;57046;45.988;18.664;2023-02-10T08:02:55;102985.25;;;-2.94;80.15
69772;BME280;57046;45.988;18.664;2023-02-10T08:05:20;103006.06;;;-2.83;79.69
69772;BME280;57046;45.988;18.664;2023-02-10T08:07:46;103003.72;;;-2.78;78.63
69772;BME280;57046;45.988;18.664;2023-02-10T08:10:11;103014.59;;;-2.65;78.62
69772;BME280;57046;45.988;18.664;2023-02-10T08:12:37;103001.06;;;-2.70;78.05
69772;BME280;57046;45.988;18.664;2023-02-10T08:15:02;103013.59;;;-2.55;77.84
69772;BME280;57046;45.988;18.664;2023-02-10T08:17:28;103016.72;;;-2.52;77.39
69772;BME280;57046;45.988;18.664;2023-02-10T08:19:53;103009.59;;;-2.43;76.23
69772;BME280;57046;45.988;18.664;2023-02-10T08:22:18;103017.94;;;-2.24;75.64
69772;BME280;57046;45.988;18.664;2023-02-10T08:24:44;103021.75;;;-2.18;76.58
69772;BME280;57046;45.988;18.664;2023-02-10T08:27:09;103014.22;;;-2.07;75.56
69772;BME280;57046;45.988;18.664;2023-02-10T08:29:35;103018.81;;;-2.00;75.69
69772;BME280;57046;45.988;18.664;2023-02-10T08:32:00;103014.84;;;-1.96;74.64
69772;BME280;57046;45.988;18.664;2023-02-10T08:34:27;103028.31;;;-1.83;74.71
69772;BME280;57046;45.988;18.664;2023-02-10T08:36:52;103014.44;;;-1.85;74.47
69772;BME280;57046;45.988;18.664;2023-02-10T08:39:17;103033.38;;;-1.66;74.79
69772;BME280;57046;45.988;18.664;2023-02-10T08:41:43;103029.84;;;-1.58;75.57
69772;BME280;57046;45.988;18.664;2023-02-10T08:44:10;103028.25;;;-1.44;74.61
69772;BME280;57046;45.988;18.664;2023-02-10T08:46:36;103019.94;;;-1.41;73.36
69772;BME280;57046;45.988;18.664;2023-02-10T08:49:01;103021.19;;;-1.29;74.52
69772;BME280;57046;45.988;18.664;2023-02-10T08:51:27;103036.78;;;-1.12;73.54
69772;BME280;57046;45.988;18.664;2023-02-10T08:53:53;103025.00;;;-1.09;73.22
69772;BME280;57046;45.988;18.664;2023-02-10T08:56:19;103021.16;;;-1.07;72.81
69772;BME280;57046;45.988;18.664;2023-02-10T08:58:45;103032.63;;;-0.91;71.98
69772;BME280;57046;45.988;18.664;2023-02-10T09:01:13;103017.16;;;-1.02;71.69
69772;BME280;57046;45.988;18.664;2023-02-10T09:03:39;103007.22;;;-0.86;72.43
69772;BME280;57046;45.988;18.664;2023-02-10T09:06:05;103013.34;;;-0.71;70.17
69772;BME280;57046;45.988;18.664;2023-02-10T09:08:31;103025.53;;;-0.62;70.88
69772;BME280;57046;45.988;18.664;2023-02-10T09:10:56;103027.81;;;-0.44;70.72
69772;BME280;57046;45.988;18.664;2023-02-10T09:13:21;103028.81;;;-0.30;69.31
69772;BME280;57046;45.988;18.664;2023-02-10T09:15:47;103027.66;;;-0.28;69.59
69772;BME280;57046;45.988;18.664;2023-02-10T09:18:12;103029.56;;;-0.22;69.34
69772;BME280;57046;45.988;18.664;2023-02-10T09:20:38;103022.97;;;-0.26;69.26
69772;BME280;57046;45.988;18.664;2023-02-10T09:23:03;103021.03;;;-0.17;68.86
69772;BME280;57046;45.988;18.664;2023-02-10T09:25:29;103018.47;;;-0.11;68.96
69772;BME280;57046;45.988;18.664;2023-02-10T09:27:55;103029.31;;;0.09;69.90
69772;BME280;57046;45.988;18.664;2023-02-10T09:30:21;103017.94;;;0.15;68.79
69772;BME280;57046;45.988;18.664;2023-02-10T09:32:46;103020.94;;;0.27;67.87
69772;BME280;57046;45.988;18.664;2023-02-10T09:35:12;103007.22;;;0.23;66.72
69772;BME280;57046;45.988;18.664;2023-02-10T09:37:37;103017.97;;;0.36;65.78
69772;BME280;57046;45.988;18.664;2023-02-10T09:40:03;103020.69;;;0.43;64.96
69772;BME280;57046;45.988;18.664;2023-02-10T09:45:13;103012.91;;;0.63;66.38
69772;BME280;57046;45.988;18.664;2023-02-10T09:47:50;103005.31;;;0.81;65.79
69772;BME280;57046;45.988;18.664;2023-02-10T09:53:09;102995.13;;;1.12;64.22
69772;BME280;57046;45.988;18.664;2023-02-10T09:55:57;102988.41;;;1.23;64.80
69772;BME280;57046;45.988;18.664;2023-02-10T10:01:35;103006.75;;;1.39;64.15
69772;BME280;57046;45.988;18.664;2023-02-10T10:04:01;103005.22;;;1.58;62.81
69772;BME280;57046;45.988;18.664;2023-02-10T10:06:40;102988.41;;;1.57;61.39
69772;BME280;57046;45.988;18.664;2023-02-10T10:14:36;102940.22;;;1.52;61.12
69772;BME280;57046;45.988;18.664;2023-02-10T10:26:38;102999.97;;;2.38;60.43
69772;BME280;57046;45.988;18.664;2023-02-10T10:29:23;102990.75;;;2.40;59.80
69772;BME280;57046;45.988;18.664;2023-02-10T10:32:08;103001.44;;;2.47;58.56
69772;BME280;57046;45.988;18.664;2023-02-10T10:34:39;102985.84;;;2.50;57.76
69772;BME280;57046;45.988;18.664;2023-02-10T10:37:13;102979.06;;;2.48;55.98
69772;BME280;57046;45.988;18.664;2023-02-10T10:39:42;102975.34;;;2.62;57.86
69772;BME280;57046;45.988;18.664;2023-02-10T10:45:28;102986.66;;;2.90;55.37
69772;BME280;57046;45.988;18.664;2023-02-10T10:47:59;102976.81;;;2.91;54.10
69772;BME280;57046;45.988;18.664;2023-02-10T10:50:26;102964.28;;;2.91;54.02
69772;BME280;57046;45.988;18.664;2023-02-10T10:52:53;102935.34;;;2.82;53.94
69772;BME280;57046;45.988;18.664;2023-02-10T10:55:40;102968.72;;;3.30;54.77
69772;BME280;57046;45.988;18.664;2023-02-10T11:00:55;102966.69;;;3.32;51.05
69772;BME280;57046;45.988;18.664;2023-02-10T11:03:21;102974.47;;;3.47;52.11
69772;BME280;57046;45.988;18.664;2023-02-10T11:06:16;102972.97;;;3.57;51.72
69772;BME280;57046;45.988;18.664;2023-02-10T11:08:45;102973.34;;;3.68;51.22
69772;BME280;57046;45.988;18.664;2023-02-10T11:11:17;102959.31;;;3.79;50.12
69772;BME280;57046;45.988;18.664;2023-02-10T11:13:52;102960.97;;;3.80;50.18
69772;BME280;57046;45.988;18.664;2023-02-10T11:16:19;102961.25;;;4.03;50.81
69772;BME280;57046;45.988;18.664;2023-02-10T11:18:59;102950.94;;;4.06;50.23
69772;BME280;57046;45.988;18.664;2023-02-10T11:21:39;102955.06;;;4.02;48.58
69772;BME280;57046;45.988;18.664;2023-02-10T11:24:17;102944.09;;;4.17;48.44
69772;BME280;57046;45.988;18.664;2023-02-10T11:29:20;102916.59;;;4.35;49.85
69772;BME280;57046;45.988;18.664;2023-02-10T11:31:46;102920.47;;;4.39;49.15
69772;BME280;57046;45.988;18.664;2023-02-10T11:36:46;102931.03;;;4.58;48.16
69772;BME280;57046;45.988;18.664;2023-02-10T11:39:35;102935.19;;;4.54;48.61
69772;BME280;57046;45.988;18.664;2023-02-10T11:44:40;102925.19;;;4.68;47.72
69772;BME280;57046;45.988;18.664;2023-02-10T11:47:14;102928.63;;;4.75;47.65
69772;BME280;57046;45.988;18.664;2023-02-10T11:49:44;102929.44;;;4.76;47.38
69772;BME280;57046;45.988;18.664;2023-02-10T11:52:10;102923.28;;;4.93;46.49
69772;BME280;57046;45.988;18.664;2023-02-10T11:54:36;102909.28;;;4.91;46.67
69772;BME280;57046;45.988;18.664;2023-02-10T11:57:47;102928.16;;;5.21;47.63
69772;BME280;57046;45.988;18.664;2023-02-10T12:00:28;102925.75;;;5.31;46.42
69772;BME280;57046;45.988;18.664;2023-02-10T12:09:00;102913.19;;;5.50;43.29
69772;BME280;57046;45.988;18.664;2023-02-10T12:16:54;102902.59;;;5.55;42.43
69772;BME280;57046;45.988;18.664;2023-02-10T12:30:34;102891.72;;;5.98;40.85
69772;BME280;57046;45.988;18.664;2023-02-10T12:33:16;102896.75;;;6.06;40.58
69772;BME280;57046;45.988;18.664;2023-02-10T12:36:01;102882.97;;;6.02;39.70
69772;BME280;57046;45.988;18.664;2023-02-10T12:52:21;102847.66;;;6.63;40.54
69772;BME280;57046;45.988;18.664;2023-02-10T12:54:52;102859.69;;;6.84;40.51
69772;BME280;57046;45.988;18.664;2023-02-10T13:00:03;102850.50;;;6.80;39.74
69772;BME280;57046;45.988;18.664;2023-02-10T13:05:23;102843.22;;;6.81;40.22
69772;BME280;57046;45.988;18.664;2023-02-10T13:07:56;102850.94;;;7.00;39.56
69772;BME280;57046;45.988;18.664;2023-02-10T13:10:48;102852.38;;;7.20;39.69
69772;BME280;57046;45.988;18.664;2023-02-10T13:13:25;102830.75;;;7.26;38.87
69772;BME280;57046;45.988;18.664;2023-02-10T13:15:59;102800.78;;;6.94;39.52
69772;BME280;57046;45.988;18.664;2023-02-10T13:18:28;102834.59;;;7.30;38.46
69772;BME280;57046;45.988;18.664;2023-02-10T13:21:13;102837.28;;;7.30;38.55
69772;BME280;57046;45.988;18.664;2023-02-10T13:34:27;102845.06;;;7.43;39.50
69772;BME280;57046;45.988;18.664;2023-02-10T13:36:58;102830.84;;;7.59;38.82
69772;BME280;57046;45.988;18.664;2023-02-10T13:39:27;102829.66;;;7.84;37.62
69772;BME280;57046;45.988;18.664;2023-02-10T13:42:07;102826.94;;;7.67;38.52
69772;BME280;57046;45.988;18.664;2023-02-10T13:44:35;102839.69;;;7.43;37.79
69772;BME280;57046;45.988;18.664;2023-02-10T13:49:33;102842.53;;;7.65;37.71
69772;BME280;57046;45.988;18.664;2023-02-10T13:52:04;102843.00;;;7.62;38.32
69772;BME280;57046;45.988;18.664;2023-02-10T13:54:33;102834.19;;;7.66;38.53
69772;BME280;57046;45.988;18.664;2023-02-10T13:56:58;102836.47;;;7.58;37.62
69772;BME280;57046;45.988;18.664;2023-02-10T13:59:28;102807.81;;;7.52;38.02
69772;BME280;57046;45.988;18.664;2023-02-10T14:04:45;102840.56;;;7.60;38.80
69772;BME280;57046;45.988;18.664;2023-02-10T14:10:44;102833.97;;;7.68;38.96
69772;BME280;57046;45.988;18.664;2023-02-10T14:12:55;102824.63;;;7.59;38.11
69772;BME280;57046;45.988;18.664;2023-02-10T14:15:27;102826.19;;;7.55;38.30
69772;BME280;57046;45.988;18.664;2023-02-10T14:17:56;102818.31;;;7.65;38.66
69772;BME280;57046;45.988;18.664;2023-02-10T14:20:27;102789.59;;;7.54;38.80
69772;BME280;57046;45.988;18.664;2023-02-10T14:22:55;102770.94;;;7.36;38.29
69772;BME280;57046;45.988;18.664;2023-02-10T14:25:34;102818.16;;;7.72;38.87
69772;BME280;57046;45.988;18.664;2023-02-10T14:28:01;102818.81;;;7.79;39.37
69772;BME280;57046;45.988;18.664;2023-02-10T14:30:33;102828.66;;;7.73;38.73
69772;BME280;57046;45.988;18.664;2023-02-10T14:33:02;102825.81;;;7.80;38.54
69772;BME280;57046;45.988;18.664;2023-02-10T14:35:27;102811.47;;;7.74;38.66
69772;BME280;57046;45.988;18.664;2023-02-10T14:37:55;102804.56;;;7.50;38.97
69772;BME280;57046;45.988;18.664;2023-02-10T14:40:22;102813.72;;;7.65;38.49
69772;BME280;57046;45.988;18.664;2023-02-10T14:42:48;102819.25;;;7.59;38.50
69772;BME280;57046;45.988;18.664;2023-02-10T14:45:22;102825.75;;;7.75;38.71